DECFD LICP-LMML
Flight info
| Callsign | DECFD |
|---|---|
| Flight time | 1h 49m |
| Altitude | 5500 |
| Route | CBW1 MLN2 GZO |
| Aircraft | P28B/L-SDE3/L |
Departure
| Time | 2026-04-24 17:05 |
|---|---|
| Airport | Palermo-Boccadifalco Airport (LICP) |
Arrival
| Time | 2026-04-24 18:54 |
|---|---|
| Airport | Malta International Airport (LMML) |
| Time | Latitude | Longitude | Altitude | Speed | Heading |
|---|---|---|---|---|---|
| 2026-04-24 16:54 | 38.10977 | 13.31125 | 405 ft | 0 kts | 266° |
| 2026-04-24 17:03 | 38.11006 | 13.31121 | 404 ft | 8 kts | 353° |
| 2026-04-24 17:03 | 38.11077 | 13.31135 | 398 ft | 12 kts | 77° |
| 2026-04-24 17:04 | 38.11068 | 13.31229 | 397 ft | 9 kts | 165° |
| 2026-04-24 17:04 | 38.11016 | 13.31358 | 411 ft | 11 kts | 108° |
| 2026-04-24 17:04 | 38.11033 | 13.31425 | 411 ft | 0 kts | 353° |
| 2026-04-24 17:05 | 38.11137 | 13.31410 | 401 ft | 45 kts | 353° |
| 2026-04-24 17:05 | 38.11611 | 13.31340 | 483 ft | 78 kts | 359° |
| 2026-04-24 17:05 | 38.12589 | 13.31005 | 1054 ft | 79 kts | 321° |
| 2026-04-24 17:06 | 38.12933 | 13.30434 | 1285 ft | 82 kts | 338° |
| 2026-04-24 17:06 | 38.12912 | 13.31183 | 1727 ft | 97 kts | 159° |
| 2026-04-24 17:06 | 38.12218 | 13.31376 | 1964 ft | 102 kts | 159° |
| 2026-04-24 17:07 | 38.11763 | 13.31520 | 2159 ft | 102 kts | 155° |
| 2026-04-24 17:07 | 38.10777 | 13.31844 | 2501 ft | 114 kts | 157° |
| 2026-04-24 17:07 | 38.09282 | 13.32571 | 2954 ft | 112 kts | 142° |
| 2026-04-24 17:08 | 38.08418 | 13.33824 | 3467 ft | 92 kts | 102° |
| 2026-04-24 17:08 | 38.08362 | 13.34631 | 3553 ft | 101 kts | 85° |
| 2026-04-24 17:08 | 38.08365 | 13.35615 | 3453 ft | 122 kts | 85° |
| 2026-04-24 17:09 | 38.08527 | 13.37711 | 3582 ft | 110 kts | 66° |
| 2026-04-24 17:09 | 38.08527 | 13.39709 | 3602 ft | 122 kts | 101° |
| 2026-04-24 17:10 | 38.08256 | 13.40732 | 3600 ft | 122 kts | 105° |
| 2026-04-24 17:10 | 38.07352 | 13.43834 | 3615 ft | 127 kts | 104° |
| 2026-04-24 17:11 | 38.06416 | 13.46964 | 3609 ft | 124 kts | 104° |
| 2026-04-24 17:12 | 38.04866 | 13.52136 | 3607 ft | 128 kts | 103° |
| 2026-04-24 18:54 | 35.85927 | 14.47329 | 266 ft | 0 kts | 236° |